Denver, Colorado
Traffic Map
Current Weather Conditions
Denver, Colorado
Few Clouds
Few Clouds
84°
Feels Like: 84°
Wind Chill: 84° Ceiling: Unl
Heat Index: 84° Visibility: 10mi
Dew Point: 44° Wind: 6mph
Humidity: 24% Direction: 180° (S)
Pressure: 30.27in Gusts: 0mph
Raw Report DataKBKF 291758Z 18005KT 10SM FEW080 29/06 A3027 RMK AO2A SLP173 T02870064 10287 20145 58006
Traffic Incident Summary
Active as of:
Severity:
Category:
InformationThere was an issue retrieving the traffic information for this location. Please try a different location or try again shortly.
Advertisements
Track Severe Weather on mobile